createdAt,value
2023-01-09T00:01:31.702Z,9.76
2023-01-09T00:03:59.866Z,9.76
2023-01-09T00:06:27.798Z,9.76
2023-01-09T00:08:55.624Z,9.72
2023-01-09T00:11:23.741Z,9.73
2023-01-09T00:13:51.502Z,9.72
2023-01-09T00:16:19.561Z,9.74
2023-01-09T00:18:48.886Z,9.77
2023-01-09T00:21:17.499Z,9.77
2023-01-09T00:23:45.261Z,9.78
2023-01-09T00:26:14.912Z,9.77
2023-01-09T00:28:42.891Z,9.76
2023-01-09T00:31:11.691Z,9.74
2023-01-09T00:33:42.318Z,9.74
2023-01-09T00:36:12.751Z,9.73
2023-01-09T00:38:41.210Z,9.72
2023-01-09T00:41:14.207Z,9.73
2023-01-09T00:43:46.235Z,9.70
2023-01-09T00:46:16.116Z,9.69
2023-01-09T00:48:47.683Z,9.69
2023-01-09T00:51:18.229Z,9.67
2023-01-09T00:53:46.324Z,9.61
2023-01-09T00:56:17.905Z,9.56
2023-01-09T00:58:46.612Z,9.52
2023-01-09T01:01:14.529Z,9.51
2023-01-09T01:03:42.616Z,9.42
2023-01-09T01:06:28.121Z,9.42
2023-01-09T01:08:57.357Z,9.42
2023-01-09T01:11:25.533Z,9.40
2023-01-09T01:13:53.689Z,9.37
2023-01-09T01:16:21.655Z,9.30
2023-01-09T01:18:50.501Z,9.31
2023-01-09T01:21:19.103Z,9.27
2023-01-09T01:23:46.827Z,9.29
2023-01-09T01:26:17.712Z,9.32
2023-01-09T01:28:45.564Z,9.33
2023-01-09T01:31:17.824Z,9.35
2023-01-09T01:33:45.664Z,9.35
2023-01-09T01:36:18.022Z,9.34
2023-01-09T01:38:47.420Z,9.30
2023-01-09T01:41:29.621Z,9.31
2023-01-09T01:43:59.202Z,9.29
2023-01-09T01:46:27.418Z,9.31
2023-01-09T01:49:00.749Z,9.31
2023-01-09T01:51:32.019Z,9.26
2023-01-09T01:54:04.642Z,9.24
2023-01-09T01:56:38.853Z,9.21
2023-01-09T01:59:13.142Z,9.15
2023-01-09T02:01:43.881Z,9.12
2023-01-09T02:04:12.798Z,9.12
2023-01-09T02:06:42.136Z,9.11
2023-01-09T02:09:10.341Z,9.13
2023-01-09T02:11:45.588Z,9.15
2023-01-09T02:14:13.822Z,9.15
2023-01-09T02:16:56.150Z,9.14
2023-01-09T02:19:54.926Z,9.08
2023-01-09T02:22:36.981Z,9.03
2023-01-09T02:25:44.606Z,9.00
2023-01-09T02:28:45.968Z,8.92
2023-01-09T02:31:22.986Z,8.86
2023-01-09T02:34:00.863Z,8.82
2023-01-09T02:36:35.454Z,8.75
2023-01-09T02:39:17.314Z,8.68
2023-01-09T02:41:54.471Z,8.62
2023-01-09T02:44:23.805Z,8.55
2023-01-09T02:47:03.579Z,8.49
2023-01-09T02:49:32.887Z,8.47
2023-01-09T02:52:22.224Z,8.44
2023-01-09T02:55:02.152Z,8.41
2023-01-09T02:57:43.896Z,8.46
2023-01-09T03:00:23.366Z,8.46
2023-01-09T03:02:57.758Z,8.47
2023-01-09T03:05:32.074Z,8.52
2023-01-09T03:08:04.349Z,8.55
2023-01-09T03:10:37.357Z,8.55
2023-01-09T03:13:06.899Z,8.54
2023-01-09T03:15:38.654Z,8.55
2023-01-09T03:18:11.879Z,8.51
2023-01-09T03:20:40.466Z,8.40
2023-01-09T03:23:09.236Z,8.34
2023-01-09T03:25:37.185Z,8.27
2023-01-09T03:28:07.889Z,8.23
2023-01-09T03:30:37.807Z,8.19
2023-01-09T03:33:07.330Z,8.15
2023-01-09T03:35:35.139Z,8.07
2023-01-09T03:38:02.866Z,8.05
2023-01-09T03:40:30.777Z,8.01
2023-01-09T03:42:58.644Z,7.93
2023-01-09T03:45:26.496Z,7.93
2023-01-09T03:47:54.250Z,7.88
2023-01-09T03:50:24.368Z,7.83
2023-01-09T03:52:52.381Z,7.81
2023-01-09T03:55:20.188Z,7.77
2023-01-09T03:57:47.899Z,7.81
2023-01-09T04:00:16.283Z,7.80
2023-01-09T04:02:44.053Z,7.75
2023-01-09T04:05:12.561Z,7.73
2023-01-09T04:07:43.942Z,7.73
2023-01-09T04:10:12.549Z,7.72
2023-01-09T04:12:40.345Z,7.72
2023-01-09T04:15:08.917Z,7.69
2023-01-09T04:17:36.770Z,7.68
2023-01-09T04:20:05.651Z,7.65
2023-01-09T04:22:33.498Z,7.65
2023-01-09T04:25:03.324Z,7.66
2023-01-09T04:27:31.294Z,7.64
2023-01-09T04:29:59.035Z,7.63
2023-01-09T04:32:27.730Z,7.63
2023-01-09T04:34:55.665Z,7.65
2023-01-09T04:37:24.824Z,7.66
2023-01-09T04:39:54.847Z,7.69
2023-01-09T04:42:24.858Z,7.58
2023-01-09T04:44:54.123Z,7.62
2023-01-09T04:47:22.182Z,7.61
2023-01-09T04:49:50.170Z,7.58
2023-01-09T04:52:18.337Z,7.58
2023-01-09T04:54:46.144Z,7.57
2023-01-09T04:57:14.030Z,7.52
2023-01-09T04:59:43.242Z,7.54
2023-01-09T05:02:11.952Z,7.50
2023-01-09T05:04:39.918Z,7.50
2023-01-09T05:07:07.772Z,7.52
2023-01-09T05:09:36.200Z,7.59
2023-01-09T05:12:04.930Z,7.68
2023-01-09T05:14:32.858Z,7.69
2023-01-09T05:17:02.107Z,7.67
2023-01-09T05:19:29.986Z,7.79
2023-01-09T05:21:57.734Z,7.83
2023-01-09T05:24:25.542Z,7.89
2023-01-09T05:26:53.335Z,7.92
2023-01-09T05:29:21.134Z,7.92
2023-01-09T05:31:48.947Z,7.94
2023-01-09T05:34:18.113Z,8.01
2023-01-09T05:36:47.160Z,8.02
2023-01-09T05:39:15.113Z,8.07
2023-01-09T05:41:43.002Z,8.03
2023-01-09T05:44:11.020Z,8.05
2023-01-09T05:46:38.852Z,8.07
2023-01-09T05:49:06.782Z,8.08
2023-01-09T05:51:36.155Z,8.09
2023-01-09T05:54:05.435Z,8.09
2023-01-09T05:56:33.317Z,8.11
2023-01-09T05:59:01.092Z,8.14
2023-01-09T06:01:28.954Z,8.14
2023-01-09T06:03:56.882Z,8.14
2023-01-09T06:06:24.718Z,8.11
2023-01-09T06:08:54.684Z,8.13
2023-01-09T06:11:22.663Z,8.09
2023-01-09T06:13:50.513Z,8.08
2023-01-09T06:16:18.353Z,8.11
2023-01-09T06:18:46.351Z,8.11
2023-01-09T06:21:14.302Z,8.14
2023-01-09T06:23:42.372Z,8.12
2023-01-09T06:26:11.626Z,8.18
2023-01-09T06:28:39.603Z,8.18
2023-01-09T06:31:07.475Z,8.22
2023-01-09T06:33:35.488Z,8.26
2023-01-09T06:36:03.480Z,8.26
2023-01-09T06:38:31.278Z,8.29
2023-01-09T06:40:59.097Z,8.32
2023-01-09T06:43:28.257Z,8.34
2023-01-09T06:45:56.334Z,8.35
2023-01-09T06:48:25.063Z,8.33
2023-01-09T06:50:52.891Z,8.38
2023-01-09T06:53:21.486Z,8.41
2023-01-09T06:55:49.445Z,8.42
2023-01-09T06:58:20.442Z,8.48
2023-01-09T07:00:53.867Z,8.47
2023-01-09T07:03:22.572Z,8.42
2023-01-09T07:05:50.920Z,8.42
2023-01-09T07:08:19.072Z,8.44
2023-01-09T07:10:47.007Z,8.43
2023-01-09T07:13:14.987Z,8.44
2023-01-09T07:15:43.150Z,8.44
2023-01-09T07:18:12.960Z,8.44
2023-01-09T07:20:41.803Z,8.52
2023-01-09T07:23:12.611Z,8.52
2023-01-09T07:25:40.956Z,8.54
2023-01-09T07:28:08.915Z,8.46
2023-01-09T07:30:37.261Z,8.49
2023-01-09T07:33:05.508Z,8.46
2023-01-09T07:35:38.303Z,8.45
2023-01-09T07:38:06.387Z,8.46
2023-01-09T07:40:35.082Z,8.44
2023-01-09T07:43:03.018Z,8.39
2023-01-09T07:45:31.008Z,8.38
2023-01-09T07:47:58.862Z,8.38
2023-01-09T07:50:27.139Z,8.38
2023-01-09T07:52:56.507Z,8.37
2023-01-09T07:55:24.438Z,8.38
2023-01-09T07:57:53.273Z,8.41
2023-01-09T08:00:24.877Z,8.42
2023-01-09T08:02:53.756Z,8.42
2023-01-09T08:05:22.682Z,8.47
2023-01-09T08:07:51.590Z,8.48
2023-01-09T08:10:21.747Z,8.47
2023-01-09T08:12:50.363Z,8.48
2023-01-09T08:15:18.694Z,8.48
2023-01-09T08:17:47.453Z,8.48
2023-01-09T08:20:18.357Z,8.48
2023-01-09T08:22:50.872Z,8.48
2023-01-09T08:25:20.538Z,8.47
2023-01-09T08:27:48.659Z,8.49
2023-01-09T08:30:17.259Z,8.45
2023-01-09T08:32:49.946Z,8.42
2023-01-09T08:35:18.245Z,8.44
2023-01-09T08:37:46.295Z,8.44
2023-01-09T08:40:15.431Z,8.46
2023-01-09T08:43:02.222Z,8.40
2023-01-09T08:45:48.195Z,8.42
2023-01-09T08:48:16.930Z,8.41
2023-01-09T08:50:45.689Z,8.47
2023-01-09T08:53:16.073Z,8.40
2023-01-09T08:55:44.314Z,8.41
2023-01-09T08:58:14.381Z,8.41
2023-01-09T09:00:42.485Z,8.45
2023-01-09T09:03:11.172Z,8.45
2023-01-09T09:05:39.236Z,8.52
2023-01-09T09:08:10.190Z,8.53
2023-01-09T09:10:38.022Z,8.57
2023-01-09T09:13:06.338Z,8.53
2023-01-09T09:15:38.652Z,8.54
2023-01-09T09:18:09.623Z,8.60
2023-01-09T09:20:39.913Z,8.64
2023-01-09T09:23:08.985Z,8.65
2023-01-09T09:25:38.651Z,8.73
2023-01-09T09:28:07.374Z,8.82
2023-01-09T09:30:37.036Z,8.84
2023-01-09T09:33:05.866Z,8.93
2023-01-09T09:35:34.471Z,8.96
2023-01-09T09:38:05.479Z,8.98
2023-01-09T09:40:48.881Z,9.02
2023-01-09T09:43:56.638Z,8.92
2023-01-09T09:46:37.109Z,8.92
2023-01-09T09:49:12.401Z,8.99
2023-01-09T09:51:56.245Z,9.00
2023-01-09T09:54:31.668Z,9.04
2023-01-09T09:57:03.489Z,9.11
2023-01-09T09:59:37.983Z,9.12
2023-01-09T10:02:25.006Z,9.11
2023-01-09T10:04:59.918Z,9.16
2023-01-09T10:07:32.381Z,9.13
2023-01-09T10:10:05.111Z,9.15
2023-01-09T10:12:38.462Z,9.11
2023-01-09T10:15:17.827Z,9.08
2023-01-09T10:17:59.107Z,9.06
2023-01-09T10:20:44.207Z,9.06
2023-01-09T10:23:26.429Z,9.11
2023-01-09T10:26:00.916Z,9.11
2023-01-09T10:28:56.011Z,9.16
2023-01-09T10:31:33.777Z,9.17
2023-01-09T10:34:15.699Z,9.13
2023-01-09T10:36:59.327Z,9.14
2023-01-09T10:39:32.754Z,9.15
2023-01-09T10:42:08.656Z,9.13
2023-01-09T10:44:41.735Z,9.17
2023-01-09T10:47:23.631Z,9.22
2023-01-09T10:49:55.504Z,9.25
2023-01-09T10:52:31.352Z,9.29
2023-01-09T10:55:19.596Z,9.34
2023-01-09T10:58:02.240Z,9.37
2023-01-09T11:00:30.134Z,9.33
2023-01-09T11:02:58.662Z,9.29
2023-01-09T11:05:32.727Z,9.36
2023-01-09T11:08:06.631Z,9.36
2023-01-09T11:10:48.426Z,9.37
2023-01-09T11:13:22.260Z,9.33
2023-01-09T11:16:04.459Z,9.33
2023-01-09T11:18:33.874Z,9.31
2023-01-09T11:21:27.060Z,9.28
2023-01-09T11:23:55.138Z,9.32
2023-01-09T11:26:25.513Z,9.38
2023-01-09T11:29:07.659Z,9.42
2023-01-09T11:31:35.971Z,9.38
2023-01-09T11:34:04.072Z,9.39
2023-01-09T11:36:34.224Z,9.37
2023-01-09T11:39:03.202Z,9.43
2023-01-09T11:41:35.102Z,9.52
2023-01-09T11:44:06.425Z,9.49
2023-01-09T11:46:38.431Z,9.53
2023-01-09T11:49:20.919Z,9.55
2023-01-09T11:52:12.915Z,9.53
2023-01-09T11:54:47.479Z,9.54
2023-01-09T11:57:16.962Z,9.53
2023-01-09T11:59:45.630Z,9.51
2023-01-09T12:02:31.824Z,9.46
2023-01-09T12:05:11.409Z,9.38
2023-01-09T12:07:56.509Z,9.38
2023-01-09T12:10:47.554Z,9.41
2023-01-09T12:13:31.712Z,9.43
2023-01-09T12:16:09.802Z,9.33
2023-01-09T12:18:49.991Z,9.38
2023-01-09T12:21:33.713Z,9.38
2023-01-09T12:24:31.584Z,9.43
2023-01-09T12:27:09.781Z,9.50
2023-01-09T12:29:57.250Z,9.40
2023-01-09T12:32:47.370Z,9.42
2023-01-09T12:35:31.576Z,9.49
2023-01-09T12:38:21.927Z,9.52
2023-01-09T12:41:28.396Z,9.46
2023-01-09T12:44:24.270Z,9.41
2023-01-09T12:47:18.613Z,9.40
2023-01-09T12:49:59.700Z,9.31
2023-01-09T12:52:32.466Z,9.36
2023-01-09T12:55:05.263Z,9.35
2023-01-09T12:57:37.006Z,9.29
2023-01-09T13:00:16.099Z,9.21
2023-01-09T13:03:00.396Z,9.20
2023-01-09T13:05:36.769Z,9.23
2023-01-09T13:08:09.967Z,9.17
2023-01-09T13:10:42.471Z,9.23
2023-01-09T13:13:17.234Z,9.27
2023-01-09T13:15:51.347Z,9.31
2023-01-09T13:18:24.611Z,9.33
2023-01-09T13:20:56.690Z,9.34
2023-01-09T13:23:37.377Z,9.40
2023-01-09T13:26:10.455Z,9.49
2023-01-09T13:28:47.233Z,9.51
2023-01-09T13:31:55.167Z,9.47
2023-01-09T13:34:26.080Z,9.49
2023-01-09T13:36:56.616Z,9.54
2023-01-09T13:39:29.121Z,9.60
2023-01-09T13:42:16.555Z,9.59
2023-01-09T13:44:45.520Z,9.60
2023-01-09T13:47:21.451Z,9.63
2023-01-09T13:50:24.192Z,9.60
2023-01-09T13:52:54.639Z,9.60
2023-01-09T13:55:26.871Z,9.60
2023-01-09T13:58:22.786Z,9.58
2023-01-09T14:01:01.653Z,9.53
2023-01-09T14:03:34.108Z,9.55
2023-01-09T14:06:16.657Z,9.52
2023-01-09T14:08:45.812Z,9.50
2023-01-09T14:11:21.334Z,9.46
2023-01-09T14:13:57.954Z,9.49
2023-01-09T14:16:27.653Z,9.48
2023-01-09T14:19:04.225Z,9.53
2023-01-09T14:21:46.803Z,9.54
2023-01-09T14:24:23.472Z,9.54
2023-01-09T14:26:57.096Z,9.48
2023-01-09T14:30:19.771Z,9.46
2023-01-09T14:32:57.882Z,9.39
2023-01-09T14:35:33.713Z,9.41
2023-01-09T14:38:07.644Z,9.42
2023-01-09T14:40:37.289Z,9.39
2023-01-09T14:43:20.526Z,9.40
2023-01-09T14:45:50.604Z,9.42
2023-01-09T14:48:27.885Z,9.45
2023-01-09T14:51:00.058Z,9.47
2023-01-09T14:53:31.893Z,9.51
2023-01-09T14:56:01.094Z,9.50
2023-01-09T14:58:30.366Z,9.49
2023-01-09T15:01:05.200Z,9.49
2023-01-09T15:03:39.437Z,9.50
2023-01-09T15:06:16.551Z,9.51
2023-01-09T15:08:47.115Z,9.50
2023-01-09T15:11:15.481Z,9.48
2023-01-09T15:13:47.922Z,9.46
2023-01-09T15:16:18.583Z,9.39
2023-01-09T15:18:49.929Z,9.37
2023-01-09T15:21:23.127Z,9.39
2023-01-09T15:23:51.378Z,9.39
2023-01-09T15:26:26.789Z,9.35
2023-01-09T15:29:01.333Z,9.37
2023-01-09T15:31:30.282Z,9.35
2023-01-09T15:33:58.888Z,9.34
2023-01-09T15:36:31.099Z,9.32
2023-01-09T15:39:00.959Z,9.30
2023-01-09T15:41:47.899Z,9.27
2023-01-09T15:44:19.540Z,9.28
2023-01-09T15:46:50.551Z,9.27
2023-01-09T15:49:21.489Z,9.23
2023-01-09T15:51:53.805Z,9.22
2023-01-09T15:54:30.250Z,9.24
2023-01-09T15:57:34.119Z,9.27
2023-01-09T16:00:32.171Z,9.25
2023-01-09T16:03:13.548Z,9.22
2023-01-09T16:05:42.342Z,9.21
2023-01-09T16:08:25.979Z,9.17
2023-01-09T16:10:57.343Z,9.15
2023-01-09T16:13:28.512Z,9.17
2023-01-09T16:15:59.091Z,9.13
2023-01-09T16:18:33.622Z,9.09
2023-01-09T16:21:08.562Z,9.08
2023-01-09T16:23:39.601Z,9.10
2023-01-09T16:26:12.904Z,9.09
2023-01-09T16:28:42.849Z,9.10
2023-01-09T16:31:23.853Z,9.11
2023-01-09T16:33:58.512Z,9.11
2023-01-09T16:36:28.404Z,9.12
2023-01-09T16:39:00.901Z,9.07
2023-01-09T16:41:45.726Z,9.05
2023-01-09T16:44:13.844Z,9.04
2023-01-09T16:46:44.265Z,9.04
2023-01-09T16:49:20.524Z,9.02
2023-01-09T16:51:49.903Z,8.98
2023-01-09T16:54:19.459Z,8.96
2023-01-09T16:56:50.296Z,8.96
2023-01-09T16:59:26.950Z,8.90
2023-01-09T17:01:56.013Z,8.89
2023-01-09T17:04:25.056Z,8.90
2023-01-09T17:06:55.069Z,8.81
2023-01-09T17:09:27.802Z,8.80
2023-01-09T17:11:55.958Z,8.75
2023-01-09T17:14:24.618Z,8.71
2023-01-09T17:16:53.245Z,8.65
2023-01-09T17:19:25.638Z,8.64
2023-01-09T17:21:56.095Z,8.69
2023-01-09T17:24:43.551Z,8.68
2023-01-09T17:27:32.067Z,8.64
2023-01-09T17:30:00.796Z,8.62
2023-01-09T17:32:32.089Z,8.60
2023-01-09T17:35:10.573Z,8.63
2023-01-09T17:37:40.718Z,8.61
2023-01-09T17:40:23.242Z,8.60
2023-01-09T17:42:51.444Z,8.61
2023-01-09T17:45:19.844Z,8.58
2023-01-09T17:47:49.319Z,8.54
2023-01-09T17:50:20.217Z,8.54
2023-01-09T17:52:52.403Z,8.54
2023-01-09T17:55:22.510Z,8.56
2023-01-09T17:57:50.400Z,8.57
2023-01-09T18:00:29.587Z,8.56
2023-01-09T18:02:58.139Z,8.54
2023-01-09T18:05:27.773Z,8.47
2023-01-09T18:07:56.079Z,8.40
2023-01-09T18:10:30.912Z,8.36
2023-01-09T18:13:01.272Z,8.31
2023-01-09T18:15:29.685Z,8.27
2023-01-09T18:18:03.759Z,8.27
2023-01-09T18:20:32.055Z,8.26
2023-01-09T18:23:04.881Z,8.27
2023-01-09T18:26:37.089Z,8.25
2023-01-09T18:28:43.727Z,8.27
2023-01-09T18:31:13.412Z,8.30
2023-01-09T18:33:41.412Z,8.34
2023-01-09T18:36:11.067Z,8.32
2023-01-09T18:38:39.219Z,8.28
2023-01-09T18:41:07.497Z,8.28
2023-01-09T18:43:35.385Z,8.30
2023-01-09T18:46:08.841Z,8.26
2023-01-09T18:48:37.151Z,8.30
2023-01-09T18:51:07.162Z,8.35
2023-01-09T18:53:35.519Z,8.37
2023-01-09T18:56:05.185Z,8.39
2023-01-09T18:58:34.710Z,8.40
2023-01-09T19:01:03.058Z,8.42
2023-01-09T19:03:32.836Z,8.45
2023-01-09T19:06:01.637Z,8.46
2023-01-09T19:08:30.365Z,8.47
2023-01-09T19:10:59.845Z,8.45
2023-01-09T19:13:31.203Z,8.42
2023-01-09T19:15:59.794Z,8.41
2023-01-09T19:18:29.402Z,8.40
2023-01-09T19:20:59.357Z,8.40
2023-01-09T19:23:27.403Z,8.40
2023-01-09T19:25:57.676Z,8.36
2023-01-09T19:28:25.527Z,8.35
2023-01-09T19:30:57.938Z,8.34
2023-01-09T19:33:26.357Z,8.32
2023-01-09T19:35:54.804Z,8.30
2023-01-09T19:38:24.351Z,8.34
2023-01-09T19:40:52.219Z,8.37
2023-01-09T19:43:26.712Z,8.38
2023-01-09T19:45:55.270Z,8.36
2023-01-09T19:48:24.528Z,8.36
2023-01-09T19:50:52.556Z,8.36
2023-01-09T19:53:20.352Z,8.36
2023-01-09T19:55:50.230Z,8.34
2023-01-09T19:58:18.186Z,8.33
2023-01-09T20:00:46.071Z,8.34
2023-01-09T20:03:13.979Z,8.33
2023-01-09T20:05:41.843Z,8.23
2023-01-09T20:08:11.732Z,8.18
2023-01-09T20:10:40.009Z,8.14
2023-01-09T20:13:09.588Z,8.09
2023-01-09T20:15:38.939Z,8.03
2023-01-09T20:18:07.872Z,8.04
2023-01-09T20:20:36.191Z,8.03
2023-01-09T20:23:03.954Z,8.04
2023-01-09T20:25:31.783Z,8.04
2023-01-09T20:27:59.766Z,8.04
2023-01-09T20:30:29.066Z,7.97
2023-01-09T20:32:58.749Z,7.92
2023-01-09T20:35:28.110Z,7.90
2023-01-09T20:37:56.019Z,7.88
2023-01-09T20:40:24.115Z,7.84
2023-01-09T20:42:52.662Z,7.81
2023-01-09T20:45:20.876Z,7.79
2023-01-09T20:47:52.676Z,7.82
2023-01-09T20:50:20.624Z,7.85
2023-01-09T20:52:48.737Z,7.84
2023-01-09T20:55:16.907Z,7.85
2023-01-09T20:57:44.827Z,7.87
2023-01-09T21:00:13.887Z,7.84
2023-01-09T21:02:41.716Z,7.84
2023-01-09T21:05:11.427Z,7.87
2023-01-09T21:07:39.289Z,7.86
2023-01-09T21:10:08.286Z,7.89
2023-01-09T21:12:36.139Z,7.90
2023-01-09T21:15:06.505Z,7.87
2023-01-09T21:17:35.093Z,7.89
2023-01-09T21:20:03.296Z,7.93
2023-01-09T21:22:34.704Z,7.97
2023-01-09T21:25:02.792Z,7.96
2023-01-09T21:27:32.699Z,7.94
2023-01-09T21:30:00.686Z,7.96
2023-01-09T21:32:28.654Z,7.93
2023-01-09T21:35:00.643Z,7.89
2023-01-09T21:37:30.809Z,7.90
2023-01-09T21:40:00.205Z,7.88
2023-01-09T21:42:44.398Z,7.87
2023-01-09T21:45:35.206Z,7.85
2023-01-09T21:48:03.775Z,7.78
2023-01-09T21:50:31.807Z,7.77
2023-01-09T21:53:00.276Z,7.73
2023-01-09T21:55:32.574Z,7.77
2023-01-09T21:58:02.226Z,7.70
2023-01-09T22:00:30.601Z,7.68
2023-01-09T22:02:58.996Z,7.67
2023-01-09T22:05:27.321Z,7.62
2023-01-09T22:07:56.581Z,7.64
2023-01-09T22:10:24.509Z,7.62
2023-01-09T22:13:11.376Z,7.60
2023-01-09T22:15:39.313Z,7.58
2023-01-09T22:18:07.265Z,7.50
2023-01-09T22:20:35.056Z,7.46
2023-01-09T22:23:05.068Z,7.42
2023-01-09T22:25:32.914Z,7.41
2023-01-09T22:28:02.214Z,7.38
2023-01-09T22:30:30.017Z,7.37
2023-01-09T22:32:57.857Z,7.33
2023-01-09T22:35:25.779Z,7.33
2023-01-09T22:37:53.942Z,7.29
2023-01-09T22:40:22.055Z,7.21
2023-01-09T22:42:52.869Z,7.17
2023-01-09T22:45:22.229Z,7.09
2023-01-09T22:47:50.059Z,7.07
2023-01-09T22:50:18.482Z,7.04
2023-01-09T22:52:48.526Z,7.05
2023-01-09T22:55:16.401Z,7.05
2023-01-09T22:57:44.379Z,7.06
2023-01-09T23:00:13.248Z,7.03
2023-01-09T23:02:42.569Z,7.02
2023-01-09T23:05:10.903Z,6.97
2023-01-09T23:07:38.669Z,6.97
2023-01-09T23:10:07.751Z,6.97
2023-01-09T23:12:35.516Z,6.91
2023-01-09T23:15:03.363Z,6.88
2023-01-09T23:17:31.274Z,6.87
2023-01-09T23:20:00.397Z,6.84
2023-01-09T23:22:28.262Z,6.79
2023-01-09T23:24:56.072Z,6.79
2023-01-09T23:27:24.351Z,6.75
2023-01-09T23:29:52.157Z,6.77
2023-01-09T23:32:19.973Z,6.77
2023-01-09T23:34:49.450Z,6.75
2023-01-09T23:37:18.686Z,6.75
2023-01-09T23:39:46.466Z,6.74
2023-01-09T23:42:31.958Z,6.66
2023-01-09T23:44:59.927Z,6.66
2023-01-09T23:47:30.254Z,6.68
2023-01-09T23:49:58.490Z,6.70
2023-01-09T23:52:27.793Z,6.67
2023-01-09T23:54:56.669Z,6.64
2023-01-09T23:57:24.519Z,6.64
2023-01-09T23:59:52.400Z,6.62
